createdAt,value
2022-11-05T00:00:09.347Z,-1.27
2022-11-05T00:02:55.088Z,-1.29
2022-11-05T00:05:41.353Z,-1.27
2022-11-05T00:08:27.228Z,-1.24
2022-11-05T00:10:55.610Z,-1.52
2022-11-05T00:13:42.951Z,-1.47
2022-11-05T00:16:28.710Z,-1.32
2022-11-05T00:19:07.548Z,-1.30
2022-11-05T00:21:54.972Z,-1.59
2022-11-05T00:24:41.045Z,-1.35
2022-11-05T00:27:09.992Z,-1.33
2022-11-05T00:29:39.796Z,-1.38
2022-11-05T00:32:08.242Z,-1.32
2022-11-05T00:34:36.626Z,-1.32
2022-11-05T00:37:05.087Z,-1.32
2022-11-05T00:39:33.514Z,-1.34
2022-11-05T00:42:19.557Z,-1.40
2022-11-05T00:45:04.569Z,-1.24
2022-11-05T00:47:52.225Z,-1.41
2022-11-05T00:50:22.713Z,-1.42
2022-11-05T00:52:58.153Z,-1.51
2022-11-05T00:55:29.517Z,-1.59
2022-11-05T00:57:58.614Z,-1.79
2022-11-05T01:00:29.855Z,-1.57
2022-11-05T01:03:02.583Z,-1.87
2022-11-05T01:05:31.907Z,-1.51
2022-11-05T01:08:00.373Z,-1.59
2022-11-05T01:10:29.085Z,-1.53
2022-11-05T01:12:59.238Z,-1.59
2022-11-05T01:15:29.077Z,-1.66
2022-11-05T01:17:57.427Z,-1.53
2022-11-05T01:20:25.771Z,-1.57
2022-11-05T01:22:54.095Z,-1.49
2022-11-05T01:25:22.482Z,-1.51
2022-11-05T01:27:50.804Z,-1.62
2022-11-05T01:30:19.370Z,-1.58
2022-11-05T01:32:49.262Z,-1.83
2022-11-05T01:35:19.066Z,-1.50
2022-11-05T01:37:47.778Z,-1.59
2022-11-05T01:40:19.018Z,-1.55
2022-11-05T01:42:47.581Z,-1.49
2022-11-05T01:45:18.637Z,-1.58
2022-11-05T01:48:01.383Z,-1.65
2022-11-05T01:50:39.124Z,-1.58
2022-11-05T01:53:11.961Z,-1.51
2022-11-05T01:55:43.790Z,-1.51
2022-11-05T01:58:14.791Z,-1.53
2022-11-05T02:00:43.762Z,-1.65
2022-11-05T02:03:14.492Z,-1.83
2022-11-05T02:05:43.136Z,-1.67
2022-11-05T02:08:17.260Z,-1.65
2022-11-05T02:10:46.853Z,-1.66
2022-11-05T02:13:15.338Z,-1.64
2022-11-05T02:15:55.229Z,-1.73
2022-11-05T02:18:31.323Z,-1.60
2022-11-05T02:21:15.160Z,-1.51
2022-11-05T02:24:15.513Z,-1.88
2022-11-05T02:27:09.315Z,-1.67
2022-11-05T02:30:06.709Z,-1.58
2022-11-05T02:32:59.261Z,-1.62
2022-11-05T02:35:47.529Z,-1.85
2022-11-05T02:38:21.861Z,-1.44
2022-11-05T02:40:55.090Z,-1.50
2022-11-05T02:43:29.415Z,-1.56
2022-11-05T02:46:02.427Z,-1.58
2022-11-05T02:48:38.604Z,-1.72
2022-11-05T02:51:12.548Z,-1.54
2022-11-05T02:53:47.124Z,-1.73
2022-11-05T02:56:18.639Z,-1.69
2022-11-05T02:58:46.990Z,-1.74
2022-11-05T03:01:15.609Z,-1.82
2022-11-05T03:03:47.535Z,-1.71
2022-11-05T03:06:39.297Z,-1.58
2022-11-05T03:09:27.029Z,-1.53
2022-11-05T03:12:02.695Z,-1.58
2022-11-05T03:14:39.704Z,-1.61
2022-11-05T03:17:14.135Z,-1.60
2022-11-05T03:19:50.213Z,-1.63
2022-11-05T03:22:22.220Z,-1.60
2022-11-05T03:24:54.318Z,-1.75
2022-11-05T03:27:28.048Z,-1.76
2022-11-05T03:30:00.747Z,-1.86
2022-11-05T03:32:31.958Z,-1.69
2022-11-05T03:35:03.652Z,-1.64
2022-11-05T03:37:35.428Z,-1.73
2022-11-05T03:40:05.431Z,-1.64
2022-11-05T03:42:36.589Z,-1.64
2022-11-05T03:45:10.356Z,-1.66
2022-11-05T03:47:40.782Z,-1.56
2022-11-05T03:50:16.785Z,-1.51
2022-11-05T03:52:47.555Z,-1.67
2022-11-05T03:55:16.234Z,-1.64
2022-11-05T03:57:47.631Z,-1.66
2022-11-05T04:00:18.507Z,-1.58
2022-11-05T04:02:47.002Z,-1.59
2022-11-05T04:05:16.943Z,-1.68
2022-11-05T04:08:03.947Z,-1.70
2022-11-05T04:11:01.319Z,-1.92
2022-11-05T04:13:30.045Z,-1.81
2022-11-05T04:16:15.963Z,-1.80
2022-11-05T04:18:44.490Z,-1.75
2022-11-05T04:21:31.777Z,-1.66
2022-11-05T04:24:12.958Z,-1.68
2022-11-05T04:26:43.840Z,-1.67
2022-11-05T04:29:29.723Z,-1.60
2022-11-05T04:31:58.260Z,-1.57
2022-11-05T04:34:26.600Z,-1.60
2022-11-05T04:36:56.298Z,-1.57
2022-11-05T04:39:24.624Z,-1.51
2022-11-05T04:41:52.951Z,-1.44
2022-11-05T04:44:21.294Z,-1.55
2022-11-05T04:46:49.663Z,-1.71
2022-11-05T04:49:18.003Z,-1.61
2022-11-05T04:51:46.385Z,-1.59
2022-11-05T04:54:16.171Z,-1.62
2022-11-05T04:56:44.539Z,-1.62
2022-11-05T04:59:12.902Z,-1.57
2022-11-05T05:01:41.308Z,-1.71
2022-11-05T05:04:09.698Z,-1.55
2022-11-05T05:06:38.595Z,-1.74
2022-11-05T05:09:07.165Z,-1.60
2022-11-05T05:11:36.939Z,-1.56
2022-11-05T05:14:05.264Z,-1.60
2022-11-05T05:16:33.629Z,-1.70
2022-11-05T05:19:01.890Z,-1.83
2022-11-05T05:21:41.792Z,-1.82
2022-11-05T05:24:12.152Z,-1.86
2022-11-05T05:26:43.339Z,-1.67
2022-11-05T05:29:12.934Z,-1.61
2022-11-05T05:31:41.417Z,-1.59
2022-11-05T05:34:12.316Z,-1.51
2022-11-05T05:36:40.738Z,-1.57
2022-11-05T05:39:11.056Z,-1.45
2022-11-05T05:41:39.507Z,-1.56
2022-11-05T05:44:09.342Z,-1.40
2022-11-05T05:46:37.773Z,-1.38
2022-11-05T05:49:11.192Z,-1.37
2022-11-05T05:51:41.090Z,-1.39
2022-11-05T05:54:09.536Z,-1.28
2022-11-05T05:56:37.927Z,-1.39
2022-11-05T05:59:08.622Z,-1.48
2022-11-05T06:01:37.168Z,-1.53
2022-11-05T06:04:06.044Z,-1.50
2022-11-05T06:06:34.591Z,-1.53
2022-11-05T06:09:02.990Z,-1.38
2022-11-05T06:11:31.358Z,-1.38
2022-11-05T06:13:59.734Z,-1.26
2022-11-05T06:16:29.770Z,-1.28
2022-11-05T06:18:58.111Z,-1.45
2022-11-05T06:21:26.492Z,-1.39
2022-11-05T06:23:54.867Z,-1.51
2022-11-05T06:26:23.189Z,-1.33
2022-11-05T06:28:51.477Z,-1.31
2022-11-05T06:31:19.811Z,-1.19
2022-11-05T06:33:49.555Z,-1.07
2022-11-05T06:36:19.681Z,-1.06
2022-11-05T06:38:48.114Z,-1.04
2022-11-05T06:41:16.450Z,-1.10
2022-11-05T06:43:45.394Z,-1.54
2022-11-05T06:46:13.765Z,-1.17
2022-11-05T06:48:42.192Z,-1.17
2022-11-05T06:51:15.577Z,-1.21
2022-11-05T06:53:43.909Z,-1.18
2022-11-05T06:56:12.300Z,-1.15
2022-11-05T06:58:40.641Z,-1.27
2022-11-05T07:01:10.805Z,-1.05
2022-11-05T07:03:39.777Z,-0.93
2022-11-05T07:06:09.149Z,-1.06
2022-11-05T07:08:39.476Z,-1.02
2022-11-05T07:11:07.894Z,-1.09
2022-11-05T07:13:36.237Z,-1.20
2022-11-05T07:16:04.734Z,-1.20
2022-11-05T07:18:33.089Z,-1.32
2022-11-05T07:21:01.574Z,-1.50
2022-11-05T07:23:30.011Z,-1.50
2022-11-05T07:26:00.877Z,-0.99
2022-11-05T07:28:29.263Z,-0.98
2022-11-05T07:30:59.717Z,-1.16
2022-11-05T07:33:32.326Z,-0.94
2022-11-05T07:36:03.622Z,-1.11
2022-11-05T07:38:31.955Z,-0.87
2022-11-05T07:41:01.938Z,-0.86
2022-11-05T07:43:30.269Z,-0.72
2022-11-05T07:45:58.626Z,-0.92
2022-11-05T07:48:26.941Z,-0.76
2022-11-05T07:50:55.254Z,-0.80
2022-11-05T07:53:23.585Z,-0.78
2022-11-05T07:55:52.709Z,-0.74
2022-11-05T07:58:22.485Z,-0.67
2022-11-05T08:00:50.921Z,-0.67
2022-11-05T08:03:20.449Z,-0.54
2022-11-05T08:05:49.864Z,-0.47
2022-11-05T08:08:19.917Z,-0.54
2022-11-05T08:10:48.595Z,-0.36
2022-11-05T08:13:17.003Z,-0.37
2022-11-05T08:15:46.746Z,-0.32
2022-11-05T08:18:16.943Z,-0.63
2022-11-05T08:20:46.412Z,-0.54
2022-11-05T08:23:15.569Z,-0.47
2022-11-05T08:25:44.179Z,-0.44
2022-11-05T08:28:13.815Z,-0.58
2022-11-05T08:30:42.574Z,-0.66
2022-11-05T08:33:14.108Z,-0.57
2022-11-05T08:35:42.992Z,-0.40
2022-11-05T08:38:13.839Z,-0.41
2022-11-05T08:40:42.895Z,-0.35
2022-11-05T08:43:13.466Z,-0.44
2022-11-05T08:45:42.815Z,-0.36
2022-11-05T08:48:15.149Z,-0.56
2022-11-05T08:50:44.210Z,-0.66
2022-11-05T08:53:13.942Z,-0.38
2022-11-05T08:55:42.782Z,-0.52
2022-11-05T08:58:15.202Z,-0.58
2022-11-05T09:00:44.288Z,-0.70
2022-11-05T09:03:14.909Z,-0.60
2022-11-05T09:05:43.735Z,-0.77
2022-11-05T09:08:13.939Z,-0.76
2022-11-05T09:10:43.145Z,-0.63
2022-11-05T09:13:17.806Z,-0.63
2022-11-05T09:15:47.674Z,-0.82
2022-11-05T09:18:17.943Z,-0.62
2022-11-05T09:20:46.591Z,-0.67
2022-11-05T09:23:15.959Z,-0.47
2022-11-05T09:25:44.504Z,-0.39
2022-11-05T09:28:17.595Z,-0.58
2022-11-05T09:30:47.484Z,-0.67
2022-11-05T09:33:18.501Z,-0.41
2022-11-05T09:35:47.294Z,-0.39
2022-11-05T09:38:15.732Z,-0.44
2022-11-05T09:40:49.643Z,-0.64
2022-11-05T09:43:20.319Z,-0.58
2022-11-05T09:45:50.003Z,-0.58
2022-11-05T09:48:22.491Z,-0.60
2022-11-05T09:50:52.529Z,-0.51
2022-11-05T09:53:25.791Z,-0.79
2022-11-05T09:55:57.090Z,-0.56
2022-11-05T09:58:33.706Z,-0.61
2022-11-05T10:01:02.517Z,-0.70
2022-11-05T10:03:32.665Z,-0.45
2022-11-05T10:06:10.215Z,-0.34
2022-11-05T10:08:41.808Z,-0.38
2022-11-05T10:11:12.945Z,-0.44
2022-11-05T10:13:44.620Z,-0.42
2022-11-05T10:16:21.924Z,-0.36
2022-11-05T10:18:55.012Z,-0.28
2022-11-05T10:21:44.214Z,-0.36
2022-11-05T10:24:15.814Z,-0.15
2022-11-05T10:26:46.231Z,-0.13
2022-11-05T10:29:17.605Z,-0.17
2022-11-05T10:31:46.120Z,-0.27
2022-11-05T10:34:19.115Z,-0.19
2022-11-05T10:36:47.441Z,-0.17
2022-11-05T10:39:18.096Z,-0.08
2022-11-05T10:41:57.903Z,-0.31
2022-11-05T10:44:32.678Z,-0.19
2022-11-05T10:47:06.357Z,-0.17
2022-11-05T10:49:44.771Z,-0.25
2022-11-05T10:52:21.865Z,-0.41
2022-11-05T10:54:51.422Z,-0.55
2022-11-05T10:57:31.799Z,-0.41
2022-11-05T11:00:21.945Z,-0.63
2022-11-05T11:02:52.558Z,-0.58
2022-11-05T11:05:24.442Z,-0.71
2022-11-05T11:08:02.789Z,-0.56
2022-11-05T11:10:32.995Z,-0.44
2022-11-05T11:13:01.648Z,-0.52
2022-11-05T11:15:32.717Z,-0.63
2022-11-05T11:18:25.455Z,-0.72
2022-11-05T11:20:55.369Z,-0.60
2022-11-05T11:23:23.720Z,-0.67
2022-11-05T11:25:53.549Z,-1.04
2022-11-05T11:28:24.608Z,-0.82
2022-11-05T11:31:04.605Z,-0.75
2022-11-05T11:33:33.886Z,-0.60
2022-11-05T11:36:04.064Z,-0.50
2022-11-05T11:38:34.699Z,-0.69
2022-11-05T11:41:09.985Z,-0.55
2022-11-05T11:43:40.120Z,-0.72
2022-11-05T11:46:15.963Z,-0.89
2022-11-05T11:48:47.617Z,-0.88
2022-11-05T11:51:31.621Z,-1.05
2022-11-05T11:54:00.891Z,-0.85
2022-11-05T11:56:30.474Z,-0.98
2022-11-05T11:59:14.452Z,-0.86
2022-11-05T12:02:42.719Z,-0.74
2022-11-05T12:05:29.568Z,-0.82
2022-11-05T12:08:07.526Z,-0.91
2022-11-05T12:10:51.663Z,-0.79
2022-11-05T12:13:44.154Z,-0.82
2022-11-05T12:16:20.783Z,-0.72
2022-11-05T12:18:56.100Z,-0.62
2022-11-05T12:21:51.594Z,-0.73
2022-11-05T12:24:46.719Z,-0.76
2022-11-05T12:27:24.834Z,-0.80
2022-11-05T12:29:59.542Z,-1.06
2022-11-05T12:32:50.788Z,-1.02
2022-11-05T12:35:44.190Z,-1.05
2022-11-05T12:38:23.383Z,-1.00
2022-11-05T12:41:03.322Z,-0.88
2022-11-05T12:43:40.681Z,-0.96
2022-11-05T12:46:20.434Z,-1.07
2022-11-05T12:49:02.337Z,-0.95
2022-11-05T12:51:45.389Z,-0.98
2022-11-05T12:54:24.000Z,-0.94
2022-11-05T12:56:55.628Z,-0.68
2022-11-05T12:59:28.915Z,-0.75
2022-11-05T13:02:03.634Z,-0.74
2022-11-05T13:04:34.465Z,-0.92
2022-11-05T13:07:06.674Z,-0.89
2022-11-05T13:09:38.012Z,-0.85
2022-11-05T13:12:10.740Z,-0.99
2022-11-05T13:14:45.642Z,-0.76
2022-11-05T13:17:17.106Z,-0.64
2022-11-05T13:19:51.240Z,-0.93
2022-11-05T13:22:29.331Z,-0.87
2022-11-05T13:24:59.978Z,-0.86
2022-11-05T13:27:44.996Z,-0.94
2022-11-05T13:30:17.237Z,-0.89
2022-11-05T13:32:48.681Z,-0.72
2022-11-05T13:35:19.518Z,-1.07
2022-11-05T13:38:10.931Z,-0.64
2022-11-05T13:40:47.180Z,-0.68
2022-11-05T13:43:42.660Z,-0.71
2022-11-05T13:46:30.242Z,-0.75
2022-11-05T13:49:50.026Z,-0.79
2022-11-05T13:52:35.845Z,-0.82
2022-11-05T13:55:40.570Z,-0.87
2022-11-05T13:58:38.070Z,-0.95
2022-11-05T14:01:11.954Z,-1.09
2022-11-05T14:03:41.238Z,-0.80
2022-11-05T14:06:11.255Z,-0.78
2022-11-05T14:08:41.794Z,-0.91
2022-11-05T14:11:22.037Z,-0.68
2022-11-05T14:13:55.335Z,-0.77
2022-11-05T14:16:25.530Z,-0.71
2022-11-05T14:19:30.678Z,-0.82
2022-11-05T14:21:59.897Z,-0.91
2022-11-05T14:24:30.611Z,-0.86
2022-11-05T14:27:43.713Z,-0.84
2022-11-05T14:30:42.398Z,-0.79
2022-11-05T14:33:31.548Z,-0.84
2022-11-05T14:36:38.898Z,-0.88
2022-11-05T14:39:23.159Z,-0.75
2022-11-05T14:41:59.536Z,-0.76
2022-11-05T14:44:28.644Z,-0.76
2022-11-05T14:47:01.603Z,-0.87
2022-11-05T14:49:31.776Z,-0.74
2022-11-05T14:52:01.363Z,-0.74
2022-11-05T14:54:37.078Z,-0.73
2022-11-05T14:57:05.502Z,-0.72
2022-11-05T14:59:54.122Z,-0.69
2022-11-05T15:02:27.520Z,-0.73
2022-11-05T15:05:29.193Z,-0.78
2022-11-05T15:07:58.560Z,-1.27
2022-11-05T15:10:28.838Z,-0.95
2022-11-05T15:13:04.171Z,-1.09
2022-11-05T15:15:41.905Z,-0.84
2022-11-05T15:18:18.590Z,-0.96
2022-11-05T15:20:48.457Z,-1.28
2022-11-05T15:23:19.756Z,-1.19
2022-11-05T15:25:53.515Z,-1.19
2022-11-05T15:28:28.646Z,-1.02
2022-11-05T15:31:02.220Z,-1.00
2022-11-05T15:33:32.638Z,-1.35
2022-11-05T15:36:10.923Z,-0.93
2022-11-05T15:38:39.300Z,-0.89
2022-11-05T15:41:15.921Z,-0.89
2022-11-05T15:43:47.861Z,-0.85
2022-11-05T15:46:17.867Z,-0.80
2022-11-05T15:48:52.939Z,-0.97
2022-11-05T15:51:22.773Z,-0.70
2022-11-05T15:56:50.406Z,-0.71
2022-11-05T15:59:21.417Z,-0.75
2022-11-05T16:01:52.745Z,-0.79
2022-11-05T16:04:24.164Z,-0.84
2022-11-05T16:06:54.956Z,-0.94
2022-11-05T16:09:25.461Z,-0.80
2022-11-05T16:12:21.456Z,-0.80
2022-11-05T16:14:58.882Z,-1.08
2022-11-05T16:17:28.724Z,-1.12
2022-11-05T16:19:58.947Z,-1.10
2022-11-05T16:22:27.551Z,-1.21
2022-11-05T16:24:55.917Z,-1.34
2022-11-05T16:27:24.257Z,-1.11
2022-11-05T16:29:54.122Z,-1.45
2022-11-05T16:32:30.209Z,-1.31
2022-11-05T16:35:02.281Z,-1.27
2022-11-05T16:37:46.386Z,-1.18
2022-11-05T16:40:18.267Z,-1.17
2022-11-05T16:42:48.660Z,-1.09
2022-11-05T16:45:18.716Z,-1.56
2022-11-05T16:47:47.393Z,-1.09
2022-11-05T16:50:21.041Z,-1.03
2022-11-05T16:52:49.850Z,-1.17
2022-11-05T16:55:18.889Z,-1.21
2022-11-05T16:57:49.487Z,-1.20
2022-11-05T17:00:20.095Z,-1.49
2022-11-05T17:02:49.039Z,-1.23
2022-11-05T17:05:22.016Z,-1.14
2022-11-05T17:07:50.455Z,-1.25
2022-11-05T17:10:19.275Z,-1.28
2022-11-05T17:12:48.319Z,-1.16
2022-11-05T17:15:19.228Z,-1.16
2022-11-05T17:17:48.092Z,-1.32
2022-11-05T17:20:34.998Z,-1.27
2022-11-05T17:23:07.300Z,-1.27
2022-11-05T17:25:35.992Z,-1.26
2022-11-05T17:28:05.070Z,-1.28
2022-11-05T17:30:33.715Z,-1.25
2022-11-05T17:33:02.238Z,-1.27
2022-11-05T17:35:32.327Z,-1.35
2022-11-05T17:38:00.746Z,-1.26
2022-11-05T17:40:30.493Z,-1.18
2022-11-05T17:42:58.849Z,-1.19
2022-11-05T17:45:27.191Z,-1.21
2022-11-05T17:47:55.644Z,-1.27
2022-11-05T17:50:24.112Z,-1.32
2022-11-05T17:52:53.979Z,-1.29
2022-11-05T17:55:27.581Z,-1.32
2022-11-05T17:57:56.113Z,-1.39
2022-11-05T18:00:25.562Z,-1.44
2022-11-05T18:02:55.172Z,-1.46
2022-11-05T18:05:24.284Z,-1.52
2022-11-05T18:07:54.179Z,-1.58
2022-11-05T18:10:22.837Z,-1.40
2022-11-05T18:12:51.655Z,-1.61
2022-11-05T18:15:20.128Z,-1.47
2022-11-05T18:17:48.595Z,-1.52
2022-11-05T18:20:19.432Z,-1.40
2022-11-05T18:22:50.130Z,-1.44
2022-11-05T18:25:20.141Z,-1.45
2022-11-05T18:27:48.540Z,-1.39
2022-11-05T18:30:17.011Z,-1.44
2022-11-05T18:32:45.754Z,-1.39
2022-11-05T18:35:14.708Z,-1.44
2022-11-05T18:37:43.536Z,-1.51
2022-11-05T18:40:12.989Z,-1.44
2022-11-05T18:42:43.240Z,-1.45
2022-11-05T18:45:12.547Z,-1.92
2022-11-05T18:47:41.185Z,-1.50
2022-11-05T18:50:10.674Z,-1.47
2022-11-05T18:52:39.041Z,-1.65
2022-11-05T18:55:08.983Z,-1.51
2022-11-05T18:57:37.332Z,-1.51
2022-11-05T19:00:09.615Z,-1.64
2022-11-05T19:02:38.305Z,-1.57
2022-11-05T19:05:27.872Z,-1.56
2022-11-05T19:07:55.838Z,-1.61
2022-11-05T19:10:24.287Z,-1.54
2022-11-05T19:12:52.622Z,-1.51
2022-11-05T19:15:22.575Z,-1.60
2022-11-05T19:17:50.937Z,-1.44
2022-11-05T19:20:19.974Z,-1.49
2022-11-05T19:22:49.095Z,-1.47
2022-11-05T19:25:17.558Z,-1.40
2022-11-05T19:27:45.938Z,-1.40
2022-11-05T19:30:14.436Z,-1.50
2022-11-05T19:32:44.296Z,-1.60
2022-11-05T19:35:12.681Z,-1.75
2022-11-05T19:37:41.104Z,-1.90
2022-11-05T19:40:11.368Z,-1.97
2022-11-05T19:42:41.723Z,-1.79
2022-11-05T19:45:38.395Z,-1.86
2022-11-05T19:48:01.178Z,-2.10
2022-11-05T19:50:29.609Z,-1.71
2022-11-05T19:52:58.171Z,-1.50
2022-11-05T19:55:26.789Z,-1.74
2022-11-05T19:57:55.187Z,-1.55
2022-11-05T20:00:23.694Z,-1.57
2022-11-05T20:02:52.392Z,-1.49
2022-11-05T20:05:22.286Z,-1.67
2022-11-05T20:07:53.111Z,-1.47
2022-11-05T20:10:22.154Z,-1.40
2022-11-05T20:12:50.755Z,-1.49
2022-11-05T20:15:19.918Z,-1.49
2022-11-05T20:17:52.137Z,-1.42
2022-11-05T20:20:22.242Z,-1.69
2022-11-05T20:22:52.927Z,-1.59
2022-11-05T20:25:21.339Z,-1.60
2022-11-05T20:27:49.792Z,-1.78
2022-11-05T20:30:18.768Z,-1.61
2022-11-05T20:32:47.226Z,-1.57
2022-11-05T20:35:15.707Z,-1.56
2022-11-05T20:37:48.498Z,-1.67
2022-11-05T20:40:21.169Z,-1.67
2022-11-05T20:42:50.325Z,-1.61
2022-11-05T20:45:18.933Z,-1.68
2022-11-05T20:47:47.385Z,-1.66
2022-11-05T20:50:15.806Z,-1.61
2022-11-05T20:52:45.698Z,-1.56
2022-11-05T20:55:14.062Z,-1.66
2022-11-05T20:57:42.589Z,-1.54
2022-11-05T21:00:12.266Z,-1.44
2022-11-05T21:02:41.945Z,-1.41
2022-11-05T21:05:10.862Z,-1.34
2022-11-05T21:07:39.288Z,-1.39
2022-11-05T21:10:09.490Z,-1.48
2022-11-05T21:12:40.662Z,-1.47
2022-11-05T21:15:10.638Z,-1.43
2022-11-05T21:17:39.136Z,-1.49
2022-11-05T21:20:08.514Z,-1.47
2022-11-05T21:22:36.814Z,-1.55
2022-11-05T21:25:06.020Z,-1.59
2022-11-05T21:27:37.175Z,-1.68
2022-11-05T21:30:09.845Z,-1.74
2022-11-05T21:32:38.774Z,-1.77
2022-11-05T21:35:07.713Z,-1.75
2022-11-05T21:37:36.235Z,-1.72
2022-11-05T21:40:05.383Z,-1.95
2022-11-05T21:42:35.731Z,-1.84
2022-11-05T21:45:04.644Z,-1.83
2022-11-05T21:47:33.247Z,-1.79
2022-11-05T21:50:02.052Z,-1.87
2022-11-05T21:52:49.126Z,-1.89
2022-11-05T21:55:37.312Z,-2.12
2022-11-05T21:58:35.830Z,-1.92
2022-11-05T22:01:04.740Z,-1.86
2022-11-05T22:03:33.616Z,-1.85
2022-11-05T22:06:01.981Z,-1.85
2022-11-05T22:08:30.805Z,-1.86
2022-11-05T22:10:59.496Z,-1.90
2022-11-05T22:13:29.933Z,-2.00
2022-11-05T22:15:58.811Z,-2.00
2022-11-05T22:18:27.827Z,-1.98
2022-11-05T22:20:56.736Z,-1.99
2022-11-05T22:23:25.743Z,-2.01
2022-11-05T22:26:00.827Z,-2.05
2022-11-05T22:28:31.652Z,-2.13
2022-11-05T22:31:00.675Z,-2.09
2022-11-05T22:33:29.477Z,-2.10
2022-11-05T22:35:58.578Z,-2.09
2022-11-05T22:38:27.651Z,-2.11
2022-11-05T22:40:57.168Z,-2.14
2022-11-05T22:43:26.148Z,-2.14
2022-11-05T22:45:56.769Z,-2.14
2022-11-05T22:48:25.795Z,-2.10
2022-11-05T22:50:54.624Z,-1.99
2022-11-05T22:53:23.406Z,-1.93
2022-11-05T22:55:52.224Z,-2.06
2022-11-05T22:58:21.127Z,-1.96
2022-11-05T23:00:49.849Z,-2.08
2022-11-05T23:03:20.103Z,-2.18
2022-11-05T23:05:49.037Z,-2.36
2022-11-05T23:08:35.288Z,-2.06
2022-11-05T23:11:23.581Z,-2.04
2022-11-05T23:13:52.551Z,-1.79
2022-11-05T23:16:38.761Z,-1.75
2022-11-05T23:19:27.793Z,-1.88
2022-11-05T23:22:14.077Z,-1.63
2022-11-05T23:24:43.019Z,-1.56
2022-11-05T23:27:12.280Z,-1.49
2022-11-05T23:29:41.316Z,-1.58
2022-11-05T23:32:24.443Z,-1.68
2022-11-05T23:34:55.745Z,-1.43
2022-11-05T23:37:43.125Z,-1.40
2022-11-05T23:40:15.133Z,-1.47
2022-11-05T23:43:01.825Z,-1.44
2022-11-05T23:45:49.143Z,-1.40
2022-11-05T23:48:22.294Z,-1.37
2022-11-05T23:50:54.270Z,-1.38
2022-11-05T23:53:23.221Z,-1.58
2022-11-05T23:55:52.504Z,-1.53
2022-11-05T23:58:21.429Z,-1.57
